Comins, MI (48619)

5:43 PM EDT on August 30, 2015 (GMT -0400)
Moon Lake | | Change Station
CLOSE
Current Station
Personal Weather Station
Location: Lewiston, MI
Elevation: 1240 ft
Nearby Weather Stations

Elev 1240 ft 44.84 °N, 84.26 °W | Updated 2 minutes ago

Partly Cloudy
Partly Cloudy
80.6 °F
Feels Like 82 °F
N
0.4
Wind Variable Wind from SW
Gusts 0.7 mph

Today
High -- | Low -- °F
--% Chance of Precip.
Yesterday
High -- | Low -- °F
Precip. -- in
6:55 AM 8:17 PM
Full, 98% visible
Pressure 29.99 in
Visibility 10.0 miles
Clouds Scattered Clouds 4000 ft
Heat Index 82 °F
Dew Point 64 °F
Humidity 58%
Rainfall 0.00 in
Snow Depth Not available.
UV 3 out of 12
Pollen 10.10 out of 12
Air Quality Not available.
Flu Activity Not available.
METAR KAPN 302054Z AUTO 24005KT 10SM SCT040 27/16 A2999 RMK AO2 SLP155 T02670161 57017
Pressure 29.99 in
Visibility 10.0 miles
Clouds Scattered Clouds 4000 ft
Heat Index 82 °F
Dew Point 64 °F
Humidity 58%
Rainfall 0.00 in
Snow Depth Not available.
UV 3 out of 12
Pollen 10.10 out of 12
Air Quality Not available.
Flu Activity Not available.
METAR KAPN 302054Z AUTO 24005KT 10SM SCT040 27/16 A2999 RMK AO2 SLP155 T02670161 57017
Nowcast | as of 5:00 PM EDT on August 30, 2015

At 6 PM...partly cloudy. Temperature 79. Southwest winds 6 mph. At 8 PM...partly cloudy. Temperature 78. Southwest winds 5 mph. At 10 PM...mostly clear. Temperature 74. Light winds. At 12 am...mostly clear. Temperature 70. Light winds.

×

10-Day Weather Forecast

×

Almanac

Astronomy

Aug. 30, 2015 Rise Set
Actual Time
Civil Twilight
Nautical Twilight
Astronomical Twilight
Moon
Length of Visible Light
Length of Day
Tomorrow will be .
, % of the Moon is Illuminated

Today's Extremes

State Highs State Lows

Community

WunderPhotos

Upload Photos

1,851,063 photos uploaded!

WunderBlogs® & News

Nearby

Air Quality

  Air Quality AQ Index Pollutant
Not available.

Snow Depth

Station Depth Elevation

Earthquake Activity

City Distance Mag. Time & Date
Minimum magnitude displayed is 2.5.

Coastal Water Temperatures

Place Temperature

Stations

Nearby Weather Stations

Station Location Temp. Windchill Dew Point Humidity Wind Precip. Elev Updated Type